Time;durP1;ratioP1;P1;durP2;ratioP2;P2;SDS_P1;SDS_P2;PMS_P1;PMS_P2;Temp;Humidity;BMP_temperature;BMP_pressure;BME280_temperature;BME280_humidity;BME280_pressure;Samples;Min_cycle;Max_cycle;Signal;HPM_P1;HPM_P2
2021/11/27 00:00:13;;;;;;;1042.95;972.45;;;;;;;4.72;58.32;98741.63;688470;28;22387;-70
2021/11/27 00:00:41;;;;;;;1053.70;982.88;;;;;;;4.67;58.24;98747.53;685562;28;113535;-71
2021/11/27 00:01:03;;;;;;;1057.00;986.00;;;;;;;4.63;58.48;98742.75;683796;28;160715;-70
2021/11/27 00:01:24;;;;;;;1055.07;984.08;;;;;;;4.60;58.71;98741.25;691466;28;1616;-70
2021/11/27 00:01:46;;;;;;;1057.32;986.22;;;;;;;4.58;58.67;98739.81;691084;28;20396;-70
2021/11/27 00:02:11;;;;;;;1052.72;981.80;;;;;;;4.54;58.77;98736.66;690560;28;46446;-71
2021/11/27 00:02:33;;;;;;;1057.97;986.83;;;;;;;4.54;58.76;98739.34;687146;28;115153;-70
2021/11/27 00:02:54;;;;;;;1055.68;984.58;;;;;;;4.53;59.20;98743.03;663744;28;67204;-70
2021/11/27 00:03:16;;;;;;;1053.57;982.60;;;;;;;4.53;59.28;98743.03;691123;28;21526;-70
2021/11/27 00:03:38;;;;;;;1054.78;983.78;;;;;;;4.51;59.10;98740.56;690409;28;44394;-70
2021/11/27 00:04:00;;;;;;;1060.97;989.70;;;;;;;4.48;59.27;98743.59;690254;28;46349;-70
2021/11/27 00:04:21;;;;;;;1061.53;990.30;;;;;;;4.45;59.11;98738.63;690347;28;46302;-70
2021/11/27 00:04:43;;;;;;;1058.97;987.78;;;;;;;4.44;58.97;98742.31;690933;28;22516;-70
2021/11/27 00:05:07;;;;;;;1056.35;985.33;;;;;;;4.43;59.27;98743.31;690346;28;46293;-70
2021/11/27 00:05:30;;;;;;;1059.75;988.55;;;;;;;4.40;59.22;98737.50;687324;28;113639;-71
2021/11/27 00:05:52;;;;;;;1058.22;987.10;;;;;;;4.36;59.25;98737.06;690374;28;69736;-70
2021/11/27 00:06:13;;;;;;;1057.95;986.75;;;;;;;4.33;59.32;98737.44;690166;28;45251;-71
2021/11/27 00:06:36;;;;;;;1059.28;988.00;;;;;;;4.33;59.44;98742.78;690669;28;22303;-70
2021/11/27 00:06:58;;;;;;;1062.93;991.53;;;;;;;4.31;59.36;98736.78;689040;28;69423;-71
2021/11/27 00:07:19;;;;;;;1055.75;984.75;;;;;;;4.33;59.57;98737.44;690051;28;45693;-71
2021/11/27 00:07:42;;;;;;;1060.93;989.55;;;;;;;4.35;59.71;98735.41;689312;28;23472;-71
2021/11/27 00:08:04;;;;;;;1060.70;989.10;;;;;;;4.30;59.63;98738.63;688314;28;69392;-70
2021/11/27 00:08:27;;;;;;;1059.43;988.22;;;;;;;4.30;59.55;98732.47;690045;28;70169;-71
2021/11/27 00:08:49;;;;;;;1058.90;987.72;;;;;;;4.28;59.43;98726.50;693559;28;46283;-71
2021/11/27 00:09:11;;;;;;;1054.75;983.67;;;;;;;4.26;59.59;98742.72;687120;28;46347;-71
2021/11/27 00:09:33;;;;;;;1058.00;986.85;;;;;;;4.23;59.63;98732.38;689358;28;1097;-70
2021/11/27 00:09:55;;;;;;;1059.05;987.80;;;;;;;4.20;59.75;98727.41;687184;28;46222;-70
2021/11/27 00:10:20;;;;;;;1059.45;988.15;;;;;;;4.18;59.88;98728.59;688254;28;22387;-70
2021/11/27 00:10:43;;;;;;;1063.38;991.97;;;;;;;4.20;60.01;98731.91;685510;28;113565;-70
2021/11/27 00:11:05;;;;;;;1062.45;991.03;;;;;;;4.20;60.01;98732.75;687995;28;68313;-70
2021/11/27 00:11:26;;;;;;;1057.32;986.20;;;;;;;4.21;60.09;98729.06;690317;28;47148;-70
2021/11/27 00:11:49;;;;;;;1059.38;988.20;;;;;;;4.23;60.08;98724.38;690949;28;20858;-71
2021/11/27 00:12:10;;;;;;;1061.47;990.25;;;;;;;4.25;60.12;98732.19;688780;28;69244;-70
2021/11/27 00:12:32;;;;;;;1060.68;989.38;;;;;;;4.30;60.26;98737.81;687849;28;44133;-70
2021/11/27 00:12:53;;;;;;;1062.35;991.05;;;;;;;4.30;59.95;98735.13;689816;28;23400;-70
2021/11/27 00:13:16;;;;;;;1063.20;991.92;;;;;;;4.31;59.99;98731.44;690205;28;46448;-70
2021/11/27 00:13:38;;;;;;;1061.25;990.15;;;;;;;4.32;59.95;98733.09;689262;28;69419;-70
2021/11/27 00:14:00;;;;;;;1060.93;989.72;;;;;;;4.32;59.90;98730.44;689963;28;44352;-70
2021/11/27 00:14:22;;;;;;;1063.13;991.83;;;;;;;4.32;59.80;98733.91;689743;28;22442;-70
2021/11/27 00:14:43;;;;;;;1062.28;991.08;;;;;;;4.32;59.96;98738.44;690044;28;44287;-70
2021/11/27 00:15:07;;;;;;;1058.72;987.60;;;;;;;4.32;59.69;98730.44;689977;28;46505;-70
2021/11/27 00:15:29;;;;;;;1060.15;988.85;;;;;;;4.32;59.91;98728.56;688820;28;69080;-71
2021/11/27 00:15:52;;;;;;;1065.25;993.70;;;;;;;4.33;60.00;98726.75;689476;28;67446;-70
2021/11/27 00:16:14;;;;;;;1063.25;991.85;;;;;;;4.37;59.91;98740.56;690256;28;46702;-70
2021/11/27 00:16:37;;;;;;;1063.45;992.05;;;;;;;4.41;59.81;98731.16;688685;28;92296;-71
2021/11/27 00:16:58;;;;;;;1062.57;991.17;;;;;;;4.42;59.85;98728.31;690811;28;23425;-71
2021/11/27 00:17:22;;;;;;;1059.63;988.33;;;;;;;4.41;59.82;98728.50;689937;28;46404;-70
2021/11/27 00:17:45;;;;;;;1062.05;990.45;;;;;;;4.42;59.82;98730.13;687774;28;69196;-70
2021/11/27 00:18:07;;;;;;;1058.68;987.25;;;;;;;4.44;59.67;98725.44;689030;28;67463;-70
2021/11/27 00:18:28;;;;;;;1058.35;987.22;;;;;;;4.44;59.82;98726.28;689328;28;67497;-71
2021/11/27 00:18:51;;;;;;;1054.45;983.47;;;;;;;4.45;59.64;98721.75;691037;28;22316;-71
2021/11/27 00:19:12;;;;;;;1058.03;986.92;;;;;;;4.47;59.72;98722.41;690101;28;45024;-70
2021/11/27 00:19:34;;;;;;;1056.82;985.60;;;;;;;4.48;59.81;98721.38;690232;28;45215;-70
2021/11/27 00:19:55;;;;;;;1062.53;991.13;;;;;;;4.50;59.59;98727.38;690007;28;22246;-70
2021/11/27 00:20:21;;;;;;;1054.55;983.65;;;;;;;4.51;59.57;98724.50;689748;28;46351;-71
2021/11/27 00:20:47;;;;;;;1055.72;984.70;;;;;;;4.57;59.52;98724.78;684135;28;135728;-71
2021/11/27 00:21:10;;;;;;;1052.72;981.83;;;;;;;4.57;59.54;98728.25;685929;28;90498;-70
2021/11/27 00:21:32;;;;;;;1056.07;985.00;;;;;;;4.57;59.38;98728.25;685674;28;92246;-70
2021/11/27 00:21:54;;;;;;;1060.85;989.53;;;;;;;4.58;59.40;98723.78;687518;28;46262;-71
2021/11/27 00:22:15;;;;;;;1060.50;989.22;;;;;;;4.60;59.30;98729.75;688545;28;22311;-70
2021/11/27 00:22:37;;;;;;;1055.50;984.45;;;;;;;4.60;59.28;98727.06;687998;28;46397;-71
2021/11/27 00:22:59;;;;;;;1057.65;986.55;;;;;;;4.58;58.92;98727.25;693325;28;22384;-71
2021/11/27 00:23:21;;;;;;;1059.28;988.08;;;;;;;4.57;59.06;98722.09;690734;28;69301;-70
2021/11/27 00:23:43;;;;;;;1057.95;986.75;;;;;;;4.56;59.07;98721.28;690117;28;44421;-71
2021/11/27 00:24:06;;;;;;;1062.03;990.67;;;;;;;4.57;59.26;98730.94;689003;28;44547;-70
2021/11/27 00:24:27;;;;;;;1056.57;985.47;;;;;;;4.59;59.19;98725.41;690269;28;45044;-71
2021/11/27 00:24:48;;;;;;;1057.88;986.70;;;;;;;4.57;59.25;98728.25;690037;28;44366;-70
2021/11/27 00:25:11;;;;;;;1053.07;982.17;;;;;;;4.58;59.05;98724.59;690583;28;22869;-70
2021/11/27 00:25:33;;;;;;;1056.47;985.30;;;;;;;4.58;59.27;98727.25;688763;28;70173;-71
2021/11/27 00:25:55;;;;;;;1057.35;986.15;;;;;;;4.58;59.20;98731.78;690011;28;45238;-70
2021/11/27 00:26:18;;;;;;;1054.85;983.95;;;;;;;4.55;59.02;98724.16;689927;28;46200;-70
2021/11/27 00:26:41;;;;;;;1058.45;987.28;;;;;;;4.56;59.04;98728.44;689390;28;69542;-71
2021/11/27 00:27:04;;;;;;;1058.80;987.67;;;;;;;4.55;59.23;98732.97;686386;28;69430;-70
2021/11/27 00:27:27;;;;;;;1055.47;984.53;;;;;;;4.56;59.30;98720.44;687740;28;36524;-70
2021/11/27 00:27:49;;;;;;;1059.70;988.30;;;;;;;4.55;59.30;98724.97;686794;28;22440;-71
2021/11/27 00:28:11;;;;;;;1053.15;982.28;;;;;;;4.55;59.35;98727.63;688406;28;43957;-71
2021/11/27 00:28:33;;;;;;;1049.63;979.00;;;;;;;4.57;59.29;98728.25;689568;28;21505;-71
2021/11/27 00:28:54;;;;;;;1054.75;983.78;;;;;;;4.60;59.35;98727.06;688653;28;69357;-70
2021/11/27 00:29:16;;;;;;;1058.97;987.95;;;;;;;4.64;59.19;98729.19;693198;28;22411;-70
2021/11/27 00:29:37;;;;;;;1057.15;986.13;;;;;;;4.66;59.03;98720.97;689564;28;45252;-70
2021/11/27 00:29:59;;;;;;;1057.82;986.72;;;;;;;4.64;58.95;98733.69;691043;28;22396;-70
2021/11/27 00:30:25;;;;;;;1052.68;981.78;;;;;;;4.61;59.01;98726.06;687837;28;46381;-70
2021/11/27 00:30:47;;;;;;;1050.53;979.72;;;;;;;4.60;59.11;98729.75;684358;28;138785;-70
2021/11/27 00:31:12;;;;;;;1058.28;987.17;;;;;;;4.58;59.01;98726.44;685704;28;92031;-70
2021/11/27 00:31:36;;;;;;;1060.88;989.58;;;;;;;4.55;59.26;98724.97;685710;28;69262;-70
2021/11/27 00:31:57;;;;;;;1056.57;985.42;;;;;;;4.57;59.14;98725.59;685378;28;91995;-70
2021/11/27 00:32:19;;;;;;;1056.15;985.05;;;;;;;4.60;59.10;98727.06;689045;28;22415;-70
2021/11/27 00:32:40;;;;;;;1057.18;985.97;;;;;;;4.60;59.24;98725.22;689243;28;22393;-70
2021/11/27 00:33:04;;;;;;;1054.55;983.55;;;;;;;4.61;59.23;98726.88;689817;28;46222;-70
2021/11/27 00:33:26;;;;;;;1057.82;986.80;;;;;;;4.60;59.06;98724.41;688943;28;90621;-69
2021/11/27 00:33:47;;;;;;;1057.13;986.13;;;;;;;4.60;59.14;98727.91;689831;28;45248;-70
2021/11/27 00:34:13;;;;;;;1060.78;989.50;;;;;;;4.57;58.90;98722.91;689966;28;44411;-70
2021/11/27 00:34:35;;;;;;;1058.50;987.40;;;;;;;4.56;58.90;98729.31;684795;28;115902;-70
2021/11/27 00:34:56;;;;;;;1057.95;986.85;;;;;;;4.57;58.95;98728.25;684578;28;46394;-70
2021/11/27 00:35:20;;;;;;;1055.63;984.67;;;;;;;4.53;58.87;98721.66;685566;28;24750;-70
2021/11/27 00:35:41;;;;;;;1055.25;984.15;;;;;;;4.50;58.83;98725.53;683219;28;92274;-70
2021/11/27 00:36:03;;;;;;;1052.38;981.50;;;;;;;4.47;58.90;98728.56;685436;28;22257;-70
2021/11/27 00:36:25;;;;;;;1057.88;986.78;;;;;;;4.48;59.09;98721.38;683631;28;46411;-70
2021/11/27 00:36:48;;;;;;;1056.38;985.28;;;;;;;4.46;59.11;98721.56;686439;28;44427;-70
2021/11/27 00:37:09;;;;;;;1052.38;981.47;;;;;;;4.51;59.12;98721.84;687884;28;68357;-70
2021/11/27 00:37:31;;;;;;;1051.65;980.88;;;;;;;4.48;59.29;98724.88;689627;28;22397;-70
2021/11/27 00:37:54;;;;;;;1056.55;985.30;;;;;;;4.47;59.19;98723.22;689561;28;40520;-70
2021/11/27 00:38:16;;;;;;;1058.22;987.05;;;;;;;4.43;59.05;98715.75;689188;28;69489;-70
2021/11/27 00:38:38;;;;;;;1056.10;985.00;;;;;;;4.45;59.26;98717.25;688877;28;69419;-70
2021/11/27 00:38:59;;;;;;;1057.47;986.35;;;;;;;4.46;59.37;98724.22;690902;28;23472;-70
2021/11/27 00:39:22;;;;;;;1060.07;988.88;;;;;;;4.47;59.31;98723.22;690064;28;44378;-70
2021/11/27 00:39:44;;;;;;;1061.82;990.53;;;;;;;4.48;59.28;98724.88;688549;28;45288;-70
2021/11/27 00:40:08;;;;;;;1061.00;989.70;;;;;;;4.50;59.51;98724.69;689255;28;46397;-70
2021/11/27 00:40:32;;;;;;;1055.95;985.03;;;;;;;4.50;59.43;98724.69;684777;28;138023;-70
2021/11/27 00:40:54;;;;;;;1056.75;985.75;;;;;;;4.49;59.34;98721.19;687465;28;67456;-70
2021/11/27 00:41:17;;;;;;;1059.22;988.13;;;;;;;4.54;59.44;98725.16;689395;28;21533;-70
2021/11/27 00:41:38;;;;;;;1055.32;984.45;;;;;;;4.54;59.31;98723.28;685688;28;67499;-70
2021/11/27 00:41:59;;;;;;;1058.57;987.67;;;;;;;4.55;59.27;98724.16;688088;28;22370;-70
2021/11/27 00:42:21;;;;;;;1058.75;987.75;;;;;;;4.54;59.37;98720.63;687837;28;45171;-70
2021/11/27 00:42:44;;;;;;;1057.00;986.08;;;;;;;4.56;59.33;98723.94;689736;28;23441;-70
2021/11/27 00:43:07;;;;;;;1055.05;984.13;;;;;;;4.56;59.28;98726.63;689128;28;69458;-70
2021/11/27 00:43:29;;;;;;;1054.82;983.97;;;;;;;4.55;58.99;98726.81;686272;28;88750;-70
2021/11/27 00:43:50;;;;;;;1058.68;987.65;;;;;;;4.54;59.12;98728.63;688359;28;22407;-71
2021/11/27 00:44:13;;;;;;;1056.25;985.25;;;;;;;4.54;59.29;98717.13;686941;28;46371;-70
2021/11/27 00:44:34;;;;;;;1059.25;988.10;;;;;;;4.53;58.81;98718.97;687174;28;44281;-70
2021/11/27 00:44:56;;;;;;;1057.05;986.05;;;;;;;4.54;59.11;98722.47;686277;28;44107;-70
2021/11/27 00:45:18;;;;;;;1059.65;988.55;;;;;;;4.52;59.16;98725.34;688504;28;23194;-71
2021/11/27 00:45:41;;;;;;;1056.88;985.85;;;;;;;4.52;59.33;98725.34;685633;28;46134;-70
2021/11/27 00:46:03;;;;;;;1059.05;988.05;;;;;;;4.52;59.24;98725.34;685979;28;92064;-70
2021/11/27 00:46:25;;;;;;;1053.97;983.03;;;;;;;4.50;59.20;98717.50;688325;28;45222;-71
2021/11/27 00:46:47;;;;;;;1052.85;981.95;;;;;;;4.50;59.18;98722.84;688772;28;24342;-70
2021/11/27 00:47:09;;;;;;;1058.95;987.78;;;;;;;4.51;59.36;98721.00;686563;28;69427;-70
2021/11/27 00:47:30;;;;;;;1061.78;990.58;;;;;;;4.51;59.28;98718.31;690664;28;22403;-70
2021/11/27 00:47:53;;;;;;;1064.97;993.38;;;;;;;4.51;59.34;98718.31;690471;28;21532;-70
2021/11/27 00:48:16;;;;;;;1061.55;990.25;;;;;;;4.52;59.35;98722.66;690386;28;67472;-70
2021/11/27 00:48:37;;;;;;;1060.50;989.30;;;;;;;4.53;59.36;98715.47;689515;28;69449;-71
2021/11/27 00:48:59;;;;;;;1059.57;988.47;;;;;;;4.54;59.47;98719.81;688014;28;45142;-70
2021/11/27 00:49:22;;;;;;;1053.25;982.42;;;;;;;4.55;59.24;98721.47;689156;28;46306;-70
2021/11/27 00:49:50;;;;;;;1059.85;988.65;;;;;;;4.50;59.03;98720.19;684348;28;115361;-70
2021/11/27 00:50:13;;;;;;;1060.47;989.25;;;;;;;4.50;59.12;98722.03;683778;28;138346;-71
2021/11/27 00:50:38;;;;;;;1059.53;988.45;;;;;;;4.48;59.16;98719.53;686674;28;46196;-70
2021/11/27 00:51:04;;;;;;;1060.75;989.53;;;;;;;4.45;59.19;98722.59;680106;28;137056;-70
2021/11/27 00:51:25;;;;;;;1062.63;991.38;;;;;;;4.42;59.13;98725.63;680413;28;90853;-70
2021/11/27 00:51:48;;;;;;;1060.03;988.92;;;;;;;4.43;59.11;98713.09;682774;28;44320;-70
2021/11/27 00:52:10;;;;;;;1054.63;983.70;;;;;;;4.48;59.23;98719.53;681832;28;69368;-70
2021/11/27 00:52:31;;;;;;;1055.93;985.00;;;;;;;4.48;59.29;98724.03;684773;28;45246;-70
2021/11/27 00:52:53;;;;;;;1053.28;982.47;;;;;;;4.44;59.12;98718.25;686594;28;22351;-70
2021/11/27 00:53:16;;;;;;;1051.40;980.63;;;;;;;4.40;59.11;98719.63;686924;28;46257;-70
2021/11/27 00:53:37;;;;;;;1049.93;979.47;;;;;;;4.39;59.20;98720.66;687328;28;46406;-70
2021/11/27 00:53:59;;;;;;;1051.57;981.08;;;;;;;4.39;59.27;98717.13;689812;28;46248;-71
2021/11/27 00:54:21;;;;;;;1047.40;977.10;;;;;;;4.40;59.58;98719.63;685587;28;45128;-70
2021/11/27 00:54:44;;;;;;;1047.85;977.60;;;;;;;4.42;59.71;98719.44;686043;28;44558;-70
2021/11/27 00:55:09;;;;;;;1045.88;975.67;;;;;;;4.42;59.51;98720.28;680124;28;138223;-70
2021/11/27 00:55:31;;;;;;;1047.45;977.17;;;;;;;4.41;59.46;98718.63;684621;28;46296;-70
2021/11/27 00:55:53;;;;;;;1049.18;978.78;;;;;;;4.41;59.61;98715.13;685563;28;46381;-70
2021/11/27 00:56:16;;;;;;;1046.72;976.42;;;;;;;4.41;59.47;98718.63;688119;28;44376;-70
2021/11/27 00:56:38;;;;;;;1055.97;985.15;;;;;;;4.42;59.47;98717.63;689219;28;67609;-70
2021/11/27 00:56:59;;;;;;;1059.90;988.88;;;;;;;4.41;59.21;98715.94;688620;28;22367;-70
2021/11/27 00:57:21;;;;;;;1058.68;987.72;;;;;;;4.40;59.16;98713.47;689927;28;44557;-70
2021/11/27 00:57:43;;;;;;;1061.38;990.08;;;;;;;4.41;59.27;98713.28;685481;28;46395;-70
2021/11/27 00:58:05;;;;;;;1063.22;991.75;;;;;;;4.40;59.21;98706.25;687249;28;46282;-70
2021/11/27 00:58:26;;;;;;;1056.38;985.35;;;;;;;4.43;59.28;98710.41;687422;28;44155;-70
2021/11/27 00:58:49;;;;;;;1058.68;987.50;;;;;;;4.47;59.43;98714.38;688714;28;22401;-71
2021/11/27 00:59:10;;;;;;;1059.22;988.03;;;;;;;4.44;59.39;98704.06;688749;28;67588;-71
2021/11/27 00:59:32;;;;;;;1061.15;989.92;;;;;;;4.45;59.34;98705.69;686170;28;23378;-70
2021/11/27 00:59:54;;;;;;;1058.75;987.50;;;;;;;4.44;59.27;98702.22;684845;28;44338;-70
2021/11/27 01:00:21;;;;;;;1063.32;991.97;;;;;;;4.50;59.48;98712.16;683482;28;44543;-71
2021/11/27 01:00:46;;;;;;;1062.93;991.53;;;;;;;4.56;59.20;98707.91;680328;28;138144;-70
2021/11/27 01:01:11;;;;;;;1060.97;989.60;;;;;;;4.59;59.31;98715.56;680100;28;114677;-70
2021/11/27 01:01:35;;;;;;;1060.85;989.58;;;;;;;4.60;59.14;98711.03;680754;28;113515;-70
2021/11/27 01:01:57;;;;;;;1065.93;994.38;;;;;;;4.60;58.84;98711.03;683777;28;92456;-70
2021/11/27 01:02:19;;;;;;;1061.25;990.00;;;;;;;4.60;58.91;98713.72;687892;28;46400;-71
2021/11/27 01:02:52;;;;;;;1057.38;986.15;;;;;;;4.61;58.89;98710.84;678633;28;135939;-70
2021/11/27 01:03:19;;;;;;;1060.20;988.88;;;;;;;4.63;58.74;98707.97;684181;28;137874;-71
2021/11/27 01:03:44;;;;;;;1050.22;979.42;;;;;;;4.63;58.66;98711.47;681113;28;92091;-71
2021/11/27 01:04:06;;;;;;;1055.05;984.13;;;;;;;4.64;58.63;98710.47;683159;28;115276;-70
2021/11/27 01:04:28;;;;;;;1059.53;988.43;;;;;;;4.64;58.47;98709.63;685092;28;66905;-70
2021/11/27 01:04:50;;;;;;;1060.03;988.75;;;;;;;4.65;58.60;98706.75;685361;28;46327;-70
2021/11/27 01:05:11;;;;;;;1057.57;986.47;;;;;;;4.61;58.60;98699.31;682706;28;45236;-71
2021/11/27 01:05:37;;;;;;;1060.70;989.53;;;;;;;4.64;58.55;98702.44;682544;28;45264;-71
2021/11/27 01:06:02;;;;;;;1055.47;984.45;;;;;;;4.63;58.82;98698.09;678292;28;115141;-71
2021/11/27 01:06:25;;;;;;;1057.22;986.03;;;;;;;4.62;58.57;98704.47;677947;28;114620;-70
2021/11/27 01:06:47;;;;;;;1056.47;985.28;;;;;;;4.60;58.54;98703.81;679731;29;55301;-71
2021/11/27 01:07:10;;;;;;;1058.10;986.83;;;;;;;4.59;58.49;98699.53;679876;28;70176;-70
2021/11/27 01:07:32;;;;;;;1058.75;987.65;;;;;;;4.60;58.62;98705.69;683094;28;46278;-70
2021/11/27 01:07:53;;;;;;;1057.38;986.17;;;;;;;4.61;58.70;98705.50;683608;28;46535;-70
2021/11/27 01:08:16;;;;;;;1053.50;982.58;;;;;;;4.63;58.60;98705.31;683337;28;45225;-70
2021/11/27 01:08:38;;;;;;;1055.20;983.92;;;;;;;4.61;58.82;98696.66;684704;28;44232;-70
2021/11/27 01:09:02;;;;;;;1056.50;985.47;;;;;;;4.64;58.74;98706.94;684647;28;44994;-70
2021/11/27 01:09:25;;;;;;;1057.90;986.83;;;;;;;4.62;58.60;98701.78;682787;28;115664;-70
2021/11/27 01:09:46;;;;;;;1059.30;988.20;;;;;;;4.60;58.54;98706.50;687177;28;45267;-70
2021/11/27 01:10:10;;;;;;;1055.88;984.97;;;;;;;4.61;58.76;98702.81;684979;28;23455;-70
2021/11/27 01:10:36;;;;;;;1050.05;979.30;;;;;;;4.63;58.58;98702.63;681959;28;114261;-70
2021/11/27 01:11:02;;;;;;;1057.10;986.05;;;;;;;4.62;58.61;98701.78;683506;28;115267;-71
2021/11/27 01:11:26;;;;;;;1054.18;983.28;;;;;;;4.59;58.77;98698.66;683607;28;137769;-71
2021/11/27 01:11:50;;;;;;;1063.43;992.23;;;;;;;4.61;58.79;98705.50;681725;28;115201;-70
2021/11/27 01:12:13;;;;;;;1062.82;991.63;;;;;;;4.63;58.69;98710.66;684394;28;115123;-70
2021/11/27 01:12:34;;;;;;;1059.90;988.90;;;;;;;4.59;58.62;98707.53;684981;28;44401;-71
2021/11/27 01:12:56;;;;;;;1057.63;986.63;;;;;;;4.60;58.66;98709.19;687641;28;21595;-70
2021/11/27 01:13:18;;;;;;;1056.45;985.47;;;;;;;4.59;58.69;98710.22;687656;28;45257;-70
2021/11/27 01:13:41;;;;;;;1059.15;987.92;;;;;;;4.60;58.74;98705.69;687833;28;69436;-70
2021/11/27 01:14:06;;;;;;;1056.03;985.03;;;;;;;4.59;58.66;98704.88;689821;28;69335;-69
2021/11/27 01:14:29;;;;;;;1058.55;987.45;;;;;;;4.60;58.69;98705.69;689576;28;92097;-70
2021/11/27 01:14:51;;;;;;;1059.13;987.92;;;;;;;4.53;58.74;98700.28;688525;28;67452;-70
2021/11/27 01:15:15;;;;;;;1062.70;991.40;;;;;;;4.57;58.60;98709.56;689137;28;67238;-70
2021/11/27 01:15:37;;;;;;;1059.63;988.33;;;;;;;4.58;58.78;98710.41;686041;28;67471;-68
2021/11/27 01:16:00;;;;;;;1058.82;987.53;;;;;;;4.59;58.77;98706.69;687542;28;46345;-70
2021/11/27 01:16:24;;;;;;;1062.53;991.17;;;;;;;4.55;58.55;98697.41;685776;28;69449;-70
2021/11/27 01:16:51;;;;;;;1062.63;991.22;;;;;;;4.59;58.70;98709.38;686335;28;115840;-70
2021/11/27 01:17:13;;;;;;;1059.82;988.58;;;;;;;4.60;58.68;98705.69;686747;28;136207;-70
2021/11/27 01:17:35;;;;;;;1058.63;987.42;;;;;;;4.58;58.78;98702.38;687825;28;69279;-70
2021/11/27 01:17:57;;;;;;;1062.18;990.67;;;;;;;4.60;58.70;98706.50;690158;28;46295;-70
2021/11/27 01:18:19;;;;;;;1063.53;992.13;;;;;;;4.59;58.65;98702.19;689571;28;46475;-70
2021/11/27 01:18:41;;;;;;;1059.93;988.80;;;;;;;4.60;58.67;98703.81;690381;28;46267;-70
2021/11/27 01:19:03;;;;;;;1061.45;990.22;;;;;;;4.59;58.88;98704.00;689618;28;46870;-71
2021/11/27 01:19:25;;;;;;;1062.57;991.28;;;;;;;4.55;58.89;98698.22;689495;28;46313;-70
2021/11/27 01:19:46;;;;;;;1060.72;989.47;;;;;;;4.57;58.78;98704.19;689969;28;23335;-70
2021/11/27 01:20:11;;;;;;;1054.00;982.90;;;;;;;4.57;58.76;98701.53;684470;28;46383;-70
2021/11/27 01:20:37;;;;;;;1060.78;989.58;;;;;;;4.57;58.85;98706.88;682262;28;115229;-70
2021/11/27 01:21:02;;;;;;;1063.75;992.42;;;;;;;4.56;58.83;98701.72;683571;28;137711;-70
2021/11/27 01:21:27;;;;;;;1063.25;991.95;;;;;;;4.56;58.92;98707.91;686779;28;92256;-71
2021/11/27 01:21:54;;;;;;;1058.82;987.75;;;;;;;4.56;58.85;98699.91;686011;28;113580;-70
2021/11/27 01:22:18;;;;;;;1056.97;985.90;;;;;;;4.58;58.91;98711.22;685180;28;137971;-71
2021/11/27 01:22:41;;;;;;;1060.20;989.00;;;;;;;4.58;58.84;98697.03;684279;28;92262;-70
2021/11/27 01:23:03;;;;;;;1062.82;991.53;;;;;;;4.59;58.92;98699.53;686384;28;67446;-70
2021/11/27 01:23:26;;;;;;;1062.90;991.58;;;;;;;4.58;58.87;98703.19;686677;28;1989;-71
2021/11/27 01:23:49;;;;;;;1056.82;985.85;;;;;;;4.58;58.65;98697.03;683036;28;46382;-70
2021/11/27 01:24:14;;;;;;;1057.32;986.15;;;;;;;4.59;58.70;98701.34;683280;28;115228;-71
2021/11/27 01:24:36;;;;;;;1056.50;985.45;;;;;;;4.57;58.78;98698.84;685447;28;92069;-70
2021/11/27 01:24:57;;;;;;;1057.85;986.75;;;;;;;4.58;58.83;98697.84;687432;28;46788;-70
2021/11/27 01:25:21;;;;;;;1061.65;990.45;;;;;;;4.57;58.93;98698.84;685506;28;46416;-71
2021/11/27 01:25:44;;;;;;;1059.60;988.55;;;;;;;4.58;58.77;98697.03;684717;28;67462;-71
2021/11/27 01:26:06;;;;;;;1061.68;990.47;;;;;;;4.57;58.61;98703.38;686103;28;67477;-70
2021/11/27 01:26:28;;;;;;;1062.18;990.92;;;;;;;4.58;58.68;98695.19;685783;28;23098;-71
2021/11/27 01:26:50;;;;;;;1062.30;991.10;;;;;;;4.54;58.80;98696.56;683679;28;67441;-71
2021/11/27 01:27:12;;;;;;;1064.32;993.03;;;;;;;4.57;58.75;98700.72;685786;28;22226;-71
2021/11/27 01:27:34;;;;;;;1064.25;992.88;;;;;;;4.53;58.71;98700.28;689638;28;1453;-70
2021/11/27 01:27:57;;;;;;;1064.03;992.33;;;;;;;4.54;58.79;98690.41;682167;28;64804;-70
2021/11/27 01:28:20;;;;;;;1059.47;988.28;;;;;;;4.53;58.79;98689.56;683993;28;69394;-71
2021/11/27 01:28:42;;;;;;;1060.35;989.15;;;;;;;4.50;58.75;98692.63;684152;28;67212;-71
2021/11/27 01:29:04;;;;;;;1057.55;986.35;;;;;;;4.51;58.75;98696.94;680662;29;46422;-70
2021/11/27 01:29:27;;;;;;;1058.03;986.85;;;;;;;4.51;58.78;98695.09;674365;29;45997;-70
2021/11/27 01:29:48;;;;;;;1053.60;982.65;;;;;;;4.52;58.89;98698.59;675222;29;69405;-71
2021/11/27 01:30:11;;;;;;;1058.00;986.90;;;;;;;4.49;58.65;98691.78;676117;29;22515;-70
2021/11/27 01:30:33;;;;;;;1060.80;989.60;;;;;;;4.45;58.62;98689.66;673350;29;56797;-71
2021/11/27 01:30:57;;;;;;;1057.80;986.70;;;;;;;4.45;58.80;98697.69;674322;29;46217;-71
2021/11/27 01:31:19;;;;;;;1062.72;991.42;;;;;;;4.43;58.71;98694.38;672375;29;115088;-70
2021/11/27 01:31:41;;;;;;;1059.03;987.72;;;;;;;4.42;59.02;98693.56;678656;29;20855;-70
2021/11/27 01:32:04;;;;;;;1059.85;988.55;;;;;;;4.43;58.92;98689.03;673938;29;45203;-71
2021/11/27 01:32:26;;;;;;;1060.80;989.60;;;;;;;4.44;59.19;98698.72;675533;29;69731;-70
2021/11/27 01:32:49;;;;;;;1058.78;987.70;;;;;;;4.42;59.00;98692.72;677939;29;44363;-70
2021/11/27 01:33:10;;;;;;;1059.05;987.92;;;;;;;4.41;59.01;98691.88;678452;28;69240;-70
2021/11/27 01:33:33;;;;;;;1062.30;991.05;;;;;;;4.41;59.06;98691.06;678942;29;23440;-71
2021/11/27 01:33:55;;;;;;;1064.07;992.78;;;;;;;4.40;59.20;98692.91;678689;28;67454;-70
2021/11/27 01:34:16;;;;;;;1060.95;989.72;;;;;;;4.39;59.35;98693.09;683023;28;45242;-70
2021/11/27 01:34:39;;;;;;;1053.88;982.97;;;;;;;4.39;59.31;98699.28;682948;28;46347;-71
2021/11/27 01:35:00;;;;;;;1054.85;983.90;;;;;;;4.39;59.14;98690.41;683900;28;46181;-71
2021/11/27 01:35:24;;;;;;;1058.70;987.60;;;;;;;4.36;59.05;98688.97;684657;28;44367;-70
2021/11/27 01:35:46;;;;;;;1059.88;988.67;;;;;;;4.35;59.03;98692.63;682114;28;67429;-71
2021/11/27 01:36:08;;;;;;;1060.68;989.47;;;;;;;4.33;59.12;98690.16;682966;28;70123;-70
2021/11/27 01:36:29;;;;;;;1059.55;988.45;;;;;;;4.30;59.35;98687.03;682067;28;21301;-70
2021/11/27 01:36:51;;;;;;;1057.75;986.65;;;;;;;4.30;59.23;98692.38;682224;28;21495;-70
2021/11/27 01:37:14;;;;;;;1056.60;985.60;;;;;;;4.31;59.46;98691.34;678807;29;66969;-71
2021/11/27 01:37:35;;;;;;;1057.57;986.45;;;;;;;4.31;59.48;98686.84;681210;28;46392;-71
2021/11/27 01:37:57;;;;;;;1061.97;990.47;;;;;;;4.30;59.50;98685.19;686243;28;23295;-71
2021/11/27 01:38:19;;;;;;;1058.53;987.33;;;;;;;4.32;59.49;98690.34;683441;28;69486;-71
2021/11/27 01:38:42;;;;;;;1056.60;985.55;;;;;;;4.30;59.37;98690.53;684867;28;44405;-70
2021/11/27 01:39:04;;;;;;;1062.47;991.17;;;;;;;4.31;59.48;98689.53;685051;28;45210;-71
2021/11/27 01:39:27;;;;;;;1061.28;990.17;;;;;;;4.32;59.51;98677.78;683719;28;67369;-71
2021/11/27 01:39:48;;;;;;;1063.10;991.80;;;;;;;4.32;59.58;98685.81;684203;28;46490;-70
2021/11/27 01:40:14;;;;;;;1062.68;991.47;;;;;;;4.34;59.58;98688.28;691075;28;24039;-71
2021/11/27 01:40:36;;;;;;;1061.63;990.53;;;;;;;4.34;59.63;98688.28;687056;28;137757;-70
2021/11/27 01:41:04;;;;;;;1063.00;991.70;;;;;;;4.33;59.38;98681.31;687186;28;138338;-70
2021/11/27 01:41:25;;;;;;;1064.30;992.92;;;;;;;4.33;59.39;98684.81;686011;28;68316;-71
2021/11/27 01:41:47;;;;;;;1065.13;993.63;;;;;;;4.32;59.24;98683.13;689414;28;46286;-71
2021/11/27 01:42:11;;;;;;;1063.72;992.22;;;;;;;4.33;59.21;98689.34;687124;28;23442;-70
2021/11/27 01:42:34;;;;;;;1055.93;984.83;;;;;;;4.33;59.26;98681.31;684836;28;115067;-71
2021/11/27 01:42:56;;;;;;;1057.68;986.47;;;;;;;4.32;59.33;98679.66;684089;28;89118;-71